Time;durP1;ratioP1;P1;durP2;ratioP2;P2;SDS_P1;SDS_P2;PMS_P1;PMS_P2;Temp;Humidity;BMP_temperature;BMP_pressure;BME280_temperature;BME280_humidity;BME280_pressure;Samples;Min_cycle;Max_cycle;Signal;HPM_P1;HPM_P2
2023/01/21 00:00:43;;;;;;;36.25;15.77;;;1.00;99.90;;;;;;5015162;28;20132;-70
2023/01/21 00:03:11;;;;;;;34.28;15.90;;;1.60;99.90;;;;;;5015427;28;20045;-70
2023/01/21 00:05:37;;;;;;;30.58;15.52;;;1.30;99.90;;;;;;5015263;28;20050;-70
2023/01/21 00:08:03;;;;;;;29.42;13.20;;;0.70;99.90;;;;;;5015224;28;20502;-70
2023/01/21 00:10:28;;;;;;;31.15;13.82;;;0.80;99.90;;;;;;5015296;28;20053;-69
2023/01/21 00:12:54;;;;;;;31.77;15.50;;;2.30;99.90;;;;;;5015107;28;20057;-70
2023/01/21 00:15:20;;;;;;;28.75;14.00;;;0.90;99.90;;;;;;5015837;28;20049;-69
2023/01/21 00:17:45;;;;;;;29.58;13.05;;;0.70;99.90;;;;;;5013819;28;20136;-70
2023/01/21 00:20:12;;;;;;;28.05;13.32;;;1.20;99.90;;;;;;5015667;28;20049;-69
2023/01/21 00:22:38;;;;;;;31.42;13.27;;;0.80;99.90;;;;;;5013869;28;20124;-70
2023/01/21 00:25:04;;;;;;;28.15;13.10;;;1.40;99.90;;;;;;4997671;28;20550;-69
2023/01/21 00:27:30;;;;;;;28.15;12.25;;;0.60;99.90;;;;;;5014276;28;20038;-70
2023/01/21 00:29:55;;;;;;;26.55;12.55;;;2.60;99.90;;;;;;5014625;28;20053;-69
2023/01/21 00:32:21;;;;;;;29.08;13.15;;;1.40;99.90;;;;;;5013923;28;20057;-69
2023/01/21 00:34:47;;;;;;;23.02;12.27;;;1.00;99.90;;;;;;5013879;28;20563;-69
2023/01/21 00:37:12;;;;;;;27.58;12.48;;;0.80;99.90;;;;;;5014028;28;20577;-70
2023/01/21 00:39:41;;;;;;;28.10;12.60;;;2.50;99.90;;;;;;5014766;28;20476;-69
2023/01/21 00:42:10;;;;;;;27.70;12.63;;;2.20;99.90;;;;;;5014687;28;20050;-69
2023/01/21 00:44:37;;;;;;;25.90;12.65;;;0.60;99.90;;;;;;5014661;28;20531;-70
2023/01/21 00:47:03;;;;;;;27.63;12.30;;;1.00;99.90;;;;;;5013395;28;20057;-70
2023/01/21 00:49:28;;;;;;;24.70;12.18;;;0.60;99.90;;;;;;5014614;28;20046;-69
2023/01/21 00:51:54;;;;;;;27.05;12.13;;;0.50;99.90;;;;;;5014588;28;20484;-69
2023/01/21 00:54:20;;;;;;;25.92;12.52;;;0.80;99.90;;;;;;5015068;28;20136;-69
2023/01/21 00:56:45;;;;;;;24.95;11.63;;;1.20;99.90;;;;;;5014492;28;20526;-70
2023/01/21 00:59:11;;;;;;;24.45;11.93;;;0.60;99.90;;;;;;4997136;28;20081;-69
2023/01/21 01:01:37;;;;;;;26.75;11.90;;;0.30;99.90;;;;;;5013225;28;20062;-70
2023/01/21 01:04:07;;;;;;;24.98;11.80;;;0.80;99.90;;;;;;5014405;28;20053;-69
2023/01/21 01:06:33;;;;;;;28.00;12.18;;;0.80;99.90;;;;;;5014752;28;20084;-70
2023/01/21 01:08:59;;;;;;;26.23;12.23;;;2.10;99.90;;;;;;5013034;28;20046;-70
2023/01/21 01:11:26;;;;;;;24.73;13.05;;;0.50;99.90;;;;;;5014319;28;20095;-69
2023/01/21 01:13:55;;;;;;;25.17;11.60;;;0.40;99.90;;;;;;5014439;28;20125;-69
2023/01/21 01:16:21;;;;;;;27.65;13.55;;;0.50;99.90;;;;;;5013193;28;20049;-69
2023/01/21 01:18:47;;;;;;;30.35;12.80;;;0.40;99.90;;;;;;5013887;28;20042;-69
2023/01/21 01:21:18;;;;;;;30.08;12.35;;;0.50;99.90;;;;;;5014068;28;20135;-69
2023/01/21 01:23:45;;;;;;;28.20;13.00;;;0.60;99.90;;;;;;5013317;28;20366;-69
2023/01/21 01:26:13;;;;;;;30.75;13.13;;;2.00;99.90;;;;;;5013608;28;20506;-70
2023/01/21 01:28:39;;;;;;;29.00;12.40;;;1.40;99.90;;;;;;5013021;28;20053;-70
2023/01/21 01:31:08;;;;;;;23.42;12.90;;;0.40;99.90;;;;;;5013220;28;20053;-70
2023/01/21 01:33:34;;;;;;;28.92;12.63;;;0.30;99.90;;;;;;5013879;28;20057;-70
2023/01/21 01:36:01;;;;;;;24.92;12.63;;;0.60;99.90;;;;;;5013922;28;20048;-70
2023/01/21 01:38:27;;;;;;;27.73;13.30;;;0.30;99.90;;;;;;5013869;28;20184;-70
2023/01/21 01:40:53;;;;;;;28.40;12.63;;;1.80;99.90;;;;;;5013861;28;20077;-70
2023/01/21 01:43:20;;;;;;;27.90;13.40;;;1.40;99.90;;;;;;5013447;28;20081;-70
2023/01/21 01:45:48;;;;;;;31.75;13.90;;;0.50;99.90;;;;;;5013695;28;20045;-70
2023/01/21 01:48:23;;;;;;;28.05;13.52;;;0.30;99.90;;;;;;5013862;28;20387;-70
2023/01/21 01:50:49;;;;;;;29.83;13.10;;;1.50;99.90;;;;;;5014640;28;20428;-70
2023/01/21 01:53:18;;;;;;;30.38;13.15;;;0.20;99.90;;;;;;5012980;28;20125;-70
2023/01/21 01:55:46;;;;;;;30.98;13.55;;;0.20;99.90;;;;;;5013682;28;20038;-70
2023/01/21 01:58:14;;;;;;;34.15;14.68;;;2.50;99.90;;;;;;5012506;28;20048;-70
2023/01/21 02:00:40;;;;;;;31.55;14.63;;;0.10;99.90;;;;;;5013650;28;20054;-71
2023/01/21 02:05:52;;;;;;;30.77;14.07;;;1.60;99.90;;;;;;5014135;28;20060;-70
2023/01/21 02:08:18;;;;;;;30.92;13.65;;;0.10;99.90;;;;;;5013034;28;20463;-70
2023/01/21 02:10:44;;;;;;;30.88;14.20;;;0.50;99.90;;;;;;5012643;28;20396;-70
2023/01/21 02:13:11;;;;;;;27.05;13.48;;;1.40;99.90;;;;;;5014072;28;20050;-71
2023/01/21 02:15:54;;;;;;;32.50;14.73;;;0.70;99.90;;;;;;4996073;28;20050;-70
2023/01/21 02:18:42;;;;;;;29.85;14.18;;;0.20;99.90;;;;;;5013565;28;20046;-70
2023/01/21 02:21:59;;;;;;;25.63;13.50;;;0.20;99.90;;;;;;5014054;28;20129;-70
2023/01/21 02:24:49;;;;;;;32.50;14.20;;;0.10;99.90;;;;;;4980058;28;20081;-70
2023/01/21 02:27:23;;;;;;;29.30;13.52;;;0.20;99.90;;;;;;5013752;28;20419;-70
2023/01/21 02:30:23;;;;;;;31.40;12.85;;;0.20;99.90;;;;;;5013403;28;20092;-70
2023/01/21 02:32:52;;;;;;;28.98;13.85;;;0.20;99.90;;;;;;4990143;28;20192;-70
2023/01/21 02:35:20;;;;;;;28.65;14.48;;;0.30;99.90;;;;;;5013052;28;20502;-70
2023/01/21 02:38:11;;;;;;;27.95;12.85;;;0.40;99.90;;;;;;5012566;28;20078;-70
2023/01/21 02:40:57;;;;;;;28.30;12.75;;;0.60;99.90;;;;;;5013589;28;20514;-70
2023/01/21 02:43:34;;;;;;;26.50;11.80;;;0.20;99.90;;;;;;5015875;28;20108;-70
2023/01/21 02:46:23;;;;;;;27.17;14.07;;;0.60;99.90;;;;;;5016272;28;20042;-70
2023/01/21 02:49:06;;;;;;;24.67;12.32;;;0.50;99.90;;;;;;5017347;28;20053;-70
2023/01/21 02:51:31;;;;;;;26.17;12.27;;;0.20;99.90;;;;;;5016546;28;20103;-70
2023/01/21 02:53:57;;;;;;;28.35;13.10;;;0.20;99.90;;;;;;5015335;28;20049;-70
2023/01/21 02:56:25;;;;;;;28.95;12.85;;;0.20;99.90;;;;;;5015530;28;20475;-70
2023/01/21 02:59:03;;;;;;;27.35;13.02;;;1.00;99.90;;;;;;5015688;28;20042;-70
2023/01/21 03:02:09;;;;;;;27.63;12.80;;;0.50;99.90;;;;;;5016927;28;20049;-70
2023/01/21 03:04:52;;;;;;;26.75;13.57;;;0.50;99.90;;;;;;5003402;28;20054;-70
2023/01/21 03:07:33;;;;;;;28.63;13.50;;;0.40;99.90;;;;;;5015307;28;20057;-70
2023/01/21 03:10:08;;;;;;;29.52;14.18;;;0.40;99.90;;;;;;5017065;28;20052;-70
2023/01/21 03:12:55;;;;;;;31.65;13.77;;;0.30;99.90;;;;;;5015324;28;20050;-70
2023/01/21 03:18:42;;;;;;;31.02;13.93;;;0.60;99.90;;;;;;5016315;28;20053;-69
2023/01/21 03:21:17;;;;;;;27.50;13.18;;;0.80;99.90;;;;;;5016925;28;20053;-70
2023/01/21 03:23:46;;;;;;;26.65;12.30;;;2.80;99.90;;;;;;5016445;28;20050;-70
2023/01/21 03:26:16;;;;;;;25.67;11.60;;;0.60;99.90;;;;;;5015348;28;20499;-70
2023/01/21 03:28:46;;;;;;;25.27;12.45;;;0.60;99.90;;;;;;5016086;28;20084;-70
2023/01/21 03:31:24;;;;;;;28.63;12.95;;;0.50;99.90;;;;;;5016744;28;20049;-70
2023/01/21 03:33:53;;;;;;;29.33;13.40;;;0.50;99.90;;;;;;5014991;28;20057;-70
2023/01/21 03:36:40;;;;;;;25.73;12.13;;;0.80;99.90;;;;;;5016082;28;20407;-70
2023/01/21 03:39:14;;;;;;;30.38;12.98;;;1.30;99.90;;;;;;5016050;28;20057;-70
2023/01/21 03:41:40;;;;;;;26.02;11.88;;;0.50;99.90;;;;;;4984137;28;20056;-70
2023/01/21 03:44:06;;;;;;;26.40;12.07;;;0.40;99.90;;;;;;5015950;28;20132;-70
2023/01/21 03:47:04;;;;;;;27.30;13.13;;;1.60;99.90;;;;;;5016678;28;20042;-70
2023/01/21 03:49:37;;;;;;;29.30;12.30;;;0.50;99.90;;;;;;5007788;28;20141;-70
2023/01/21 03:52:05;;;;;;;28.70;13.25;;;0.50;99.90;;;;;;5016137;28;20045;-70
2023/01/21 03:54:31;;;;;;;26.35;11.68;;;0.60;99.90;;;;;;5013804;28;20046;-70
2023/01/21 03:56:57;;;;;;;26.33;11.90;;;0.70;99.90;;;;;;5014460;28;20057;-70
2023/01/21 03:59:22;;;;;;;28.23;13.18;;;0.60;99.90;;;;;;5015349;28;20050;-70
2023/01/21 04:01:48;;;;;;;27.45;12.90;;;2.10;99.90;;;;;;4998330;28;20046;-70
2023/01/21 04:04:14;;;;;;;29.92;12.60;;;0.50;99.90;;;;;;5015506;28;20099;-70
2023/01/21 04:06:40;;;;;;;25.17;11.23;;;1.40;99.90;;;;;;5015220;28;20133;-70
2023/01/21 04:09:06;;;;;;;26.25;11.82;;;0.50;99.90;;;;;;5014841;28;20383;-70
2023/01/21 04:11:33;;;;;;;26.75;12.15;;;0.70;99.90;;;;;;5015296;28;20081;-70
2023/01/21 04:13:59;;;;;;;27.65;12.07;;;0.80;99.90;;;;;;5015346;28;20069;-70
2023/01/21 04:16:25;;;;;;;26.27;12.55;;;0.70;99.90;;;;;;5015332;28;20050;-70
2023/01/21 04:18:50;;;;;;;27.70;12.68;;;1.00;99.90;;;;;;5015277;28;20129;-70
2023/01/21 04:21:16;;;;;;;26.38;12.93;;;0.60;99.90;;;;;;5014273;28;20395;-70
2023/01/21 04:23:42;;;;;;;27.52;12.57;;;1.80;99.90;;;;;;5014585;28;20053;-70
2023/01/21 04:26:08;;;;;;;23.85;11.88;;;0.40;99.90;;;;;;5013991;28;20565;-70
2023/01/21 04:28:33;;;;;;;25.67;11.20;;;0.90;99.90;;;;;;4981459;28;20053;-70
2023/01/21 04:30:59;;;;;;;23.85;10.60;;;1.20;99.90;;;;;;5014927;28;20060;-70
2023/01/21 04:33:25;;;;;;;24.35;11.57;;;1.50;99.90;;;;;;5015864;28;20049;-69
2023/01/21 04:35:55;;;;;;;30.17;12.68;;;0.60;99.90;;;;;;5015049;28;20077;-70
2023/01/21 04:38:21;;;;;;;25.75;12.45;;;0.50;99.90;;;;;;5015730;28;20507;-69
2023/01/21 04:40:47;;;;;;;27.92;12.32;;;1.40;99.90;;;;;;5014959;28;20046;-70
2023/01/21 04:43:12;;;;;;;27.02;12.48;;;1.20;99.90;;;;;;5015415;28;20369;-70
2023/01/21 04:45:38;;;;;;;28.77;13.55;;;0.40;99.90;;;;;;5014738;28;20061;-70
2023/01/21 04:48:04;;;;;;;31.30;13.18;;;0.50;99.90;;;;;;5014834;28;20045;-70
2023/01/21 04:50:29;;;;;;;29.63;12.80;;;0.50;99.90;;;;;;5014655;28;20056;-70
2023/01/21 04:52:55;;;;;;;30.05;13.05;;;1.10;99.90;;;;;;5013875;28;20394;-70
2023/01/21 04:55:21;;;;;;;30.02;14.00;;;1.10;99.90;;;;;;5014542;28;20041;-70
2023/01/21 04:57:46;;;;;;;31.50;13.32;;;0.30;99.90;;;;;;5013507;28;20053;-70
2023/01/21 05:00:12;;;;;;;30.63;13.30;;;1.30;99.90;;;;;;5014970;28;20046;-70
2023/01/21 05:02:38;;;;;;;31.38;14.02;;;0.50;99.90;;;;;;5013414;28;20056;-70
2023/01/21 05:05:04;;;;;;;32.00;13.68;;;0.50;99.90;;;;;;5014145;28;20042;-70
2023/01/21 05:07:30;;;;;;;32.17;12.77;;;0.50;99.90;;;;;;5012983;28;20136;-70
2023/01/21 05:09:55;;;;;;;31.05;13.52;;;1.30;99.90;;;;;;5014272;28;20135;-70
2023/01/21 05:12:21;;;;;;;27.33;12.65;;;0.70;99.90;;;;;;5013049;28;20049;-70
2023/01/21 05:14:47;;;;;;;27.67;13.45;;;1.20;99.90;;;;;;5012617;28;20054;-70
2023/01/21 05:17:12;;;;;;;28.77;13.95;;;0.80;99.90;;;;;;5013894;28;20068;-69
2023/01/21 05:19:38;;;;;;;29.98;14.68;;;0.70;99.90;;;;;;5012939;28;20049;-70
2023/01/21 05:22:04;;;;;;;31.88;13.80;;;2.10;99.90;;;;;;5012830;28;20126;-70
2023/01/21 05:24:30;;;;;;;29.30;13.85;;;0.70;99.90;;;;;;5013090;28;20034;-70
2023/01/21 05:26:55;;;;;;;28.15;13.07;;;0.70;99.90;;;;;;5012774;28;20046;-70
2023/01/21 05:29:21;;;;;;;31.33;13.20;;;1.10;99.90;;;;;;5014542;28;20133;-70
2023/01/21 05:31:47;;;;;;;30.52;13.32;;;0.60;99.90;;;;;;5014007;28;20053;-70
2023/01/21 05:34:12;;;;;;;29.83;12.93;;;0.90;99.90;;;;;;5013106;28;20498;-70
2023/01/21 05:36:38;;;;;;;27.92;13.35;;;0.70;99.90;;;;;;5012749;28;20125;-70
2023/01/21 05:39:04;;;;;;;28.85;12.40;;;1.80;99.90;;;;;;5013819;28;20472;-70
2023/01/21 05:41:30;;;;;;;30.80;13.38;;;1.70;99.90;;;;;;5012765;28;20042;-70
2023/01/21 05:43:55;;;;;;;29.67;12.80;;;0.90;99.90;;;;;;5012940;28;20456;-70
2023/01/21 05:46:21;;;;;;;25.73;11.23;;;0.90;99.90;;;;;;4996663;28;20128;-70
2023/01/21 05:48:47;;;;;;;24.10;11.85;;;2.00;99.90;;;;;;5014613;28;20046;-70
2023/01/21 05:51:12;;;;;;;26.38;12.05;;;1.70;99.90;;;;;;5012532;28;20046;-70
2023/01/21 05:53:38;;;;;;;23.00;11.57;;;0.90;99.90;;;;;;5013743;28;20061;-70
2023/01/21 05:56:04;;;;;;;39.25;22.00;;;0.70;99.90;;;;;;5013663;28;20037;-70
2023/01/21 05:58:30;;;;;;;40.17;22.23;;;0.60;99.90;;;;;;5013694;28;20100;-70
2023/01/21 06:00:57;;;;;;;35.22;21.35;;;0.90;99.90;;;;;;5013678;28;20111;-70
2023/01/21 06:03:23;;;;;;;35.42;19.77;;;0.40;99.90;;;;;;5013687;28;20099;-71
2023/01/21 06:05:50;;;;;;;32.00;15.88;;;0.50;99.90;;;;;;5013510;28;20089;-70
2023/01/21 06:08:17;;;;;;;24.90;13.20;;;0.60;99.90;;;;;;4996182;28;20042;-70
2023/01/21 06:10:43;;;;;;;26.40;11.93;;;1.40;99.90;;;;;;5014150;28;20132;-70
2023/01/21 06:13:13;;;;;;;25.27;10.93;;;2.50;99.90;;;;;;5013372;28;20423;-70
2023/01/21 06:15:38;;;;;;;31.17;10.98;;;0.70;99.90;;;;;;5013626;28;20510;-70
2023/01/21 06:18:04;;;;;;;25.67;10.55;;;2.10;99.90;;;;;;5016480;28;20128;-70
2023/01/21 06:20:30;;;;;;;26.63;11.43;;;0.60;99.90;;;;;;5017456;28;20550;-70
2023/01/21 06:23:01;;;;;;;24.20;9.13;;;0.60;99.90;;;;;;5017281;28;20408;-70
2023/01/21 06:25:26;;;;;;;26.95;11.18;;;0.40;99.90;;;;;;5017332;28;20049;-70
2023/01/21 06:27:56;;;;;;;25.60;10.95;;;0.60;99.90;;;;;;5016093;28;20053;-70
2023/01/21 06:30:23;;;;;;;25.55;10.85;;;1.10;99.90;;;;;;5000033;28;20041;-70
2023/01/21 06:32:49;;;;;;;26.25;11.32;;;1.30;99.90;;;;;;5017266;28;20069;-70
2023/01/21 06:35:15;;;;;;;26.65;11.48;;;0.80;99.90;;;;;;5017177;28;20041;-69
2023/01/21 06:37:43;;;;;;;27.85;11.57;;;1.30;99.90;;;;;;5016127;28;20085;-70
2023/01/21 06:40:10;;;;;;;22.80;10.88;;;1.50;99.90;;;;;;5017057;28;20057;-70
2023/01/21 06:42:35;;;;;;;24.55;10.93;;;0.70;99.90;;;;;;5016117;28;20046;-70
2023/01/21 06:45:01;;;;;;;25.33;12.45;;;1.30;99.90;;;;;;5016789;28;20050;-70
2023/01/21 06:47:27;;;;;;;25.13;10.18;;;1.40;99.90;;;;;;4982943;28;20411;-70
2023/01/21 06:49:52;;;;;;;25.77;10.50;;;2.30;99.90;;;;;;5016915;28;20050;-70
2023/01/21 06:52:18;;;;;;;26.55;11.43;;;1.90;99.90;;;;;;5015943;28;20046;-70
2023/01/21 06:54:44;;;;;;;29.52;11.88;;;1.00;99.90;;;;;;5017377;28;20053;-70
2023/01/21 06:57:10;;;;;;;27.80;12.00;;;0.60;99.90;;;;;;5016722;28;20038;-70
2023/01/21 06:59:35;;;;;;;27.63;11.45;;;0.80;99.90;;;;;;5015784;28;20046;-70
2023/01/21 07:02:01;;;;;;;25.50;12.02;;;1.20;99.90;;;;;;5016983;28;20046;-70
2023/01/21 07:04:27;;;;;;;27.35;13.20;;;0.70;99.90;;;;;;5016512;28;20049;-70
2023/01/21 07:06:53;;;;;;;26.23;12.45;;;0.60;99.90;;;;;;5016549;28;20042;-70
2023/01/21 07:09:19;;;;;;;26.67;11.80;;;0.60;99.90;;;;;;5016559;28;20100;-70
2023/01/21 07:11:45;;;;;;;25.67;11.60;;;0.50;99.90;;;;;;5015506;28;20042;-70
2023/01/21 07:14:11;;;;;;;29.38;12.40;;;0.60;99.90;;;;;;5015371;28;20407;-70
2023/01/21 07:16:36;;;;;;;26.25;12.48;;;0.40;99.90;;;;;;5016962;28;20104;-70
2023/01/21 07:19:02;;;;;;;29.13;14.65;;;0.50;99.90;;;;;;5016403;28;20045;-70
2023/01/21 07:21:28;;;;;;;26.10;12.40;;;0.30;99.90;;;;;;5015647;28;20388;-70
2023/01/21 07:23:54;;;;;;;26.27;12.57;;;0.30;99.90;;;;;;5016299;28;20041;-71
2023/01/21 07:26:21;;;;;;;29.52;13.38;;;1.30;99.90;;;;;;5016232;28;20524;-69
2023/01/21 07:28:47;;;;;;;30.42;13.63;;;1.30;99.90;;;;;;5014714;28;20530;-70
2023/01/21 07:31:13;;;;;;;31.10;14.27;;;0.20;99.90;;;;;;5016162;28;20046;-70
2023/01/21 07:33:39;;;;;;;32.20;14.10;;;2.80;99.90;;;;;;5016102;28;20046;-70
2023/01/21 07:36:05;;;;;;;26.67;13.20;;;0.60;99.90;;;;;;5015828;28;20050;-70
2023/01/21 07:38:31;;;;;;;28.60;13.40;;;0.30;99.90;;;;;;5015927;28;20057;-70
2023/01/21 07:40:57;;;;;;;30.75;14.23;;;0.70;99.90;;;;;;5016479;28;20037;-70
2023/01/21 07:43:23;;;;;;;28.88;12.70;;;0.30;99.90;;;;;;5015855;28;20046;-70
2023/01/21 07:45:49;;;;;;;31.30;13.70;;;1.30;99.90;;;;;;5015726;28;20395;-70
2023/01/21 07:48:14;;;;;;;32.70;13.93;;;1.20;99.90;;;;;;5015819;28;20045;-70
2023/01/21 07:50:40;;;;;;;30.25;14.20;;;0.50;99.90;;;;;;5014811;28;20104;-70
2023/01/21 07:53:06;;;;;;;29.77;14.65;;;0.60;99.90;;;;;;4998387;28;20391;-70
2023/01/21 07:55:32;;;;;;;31.02;15.00;;;1.30;99.90;;;;;;5015463;28;20049;-70
2023/01/21 07:57:58;;;;;;;32.85;16.23;;;0.50;99.90;;;;;;5015695;28;20046;-70
2023/01/21 08:00:26;;;;;;;35.50;16.73;;;0.80;99.90;;;;;;5015548;28;20379;-70
2023/01/21 08:02:55;;;;;;;31.15;15.23;;;0.40;99.90;;;;;;5015546;28;20054;-70
2023/01/21 08:05:25;;;;;;;29.95;13.98;;;0.90;99.90;;;;;;5015444;28;20046;-70
2023/01/21 08:07:51;;;;;;;32.30;14.52;;;0.50;99.90;;;;;;5015336;28;20046;-70
2023/01/21 08:10:18;;;;;;;34.92;16.35;;;1.90;99.90;;;;;;5015143;28;20129;-70
2023/01/21 08:12:44;;;;;;;33.60;16.48;;;0.70;99.90;;;;;;5015651;28;20046;-70
2023/01/21 08:15:10;;;;;;;32.47;15.80;;;1.10;99.90;;;;;;5016095;28;20103;-70
2023/01/21 08:17:38;;;;;;;32.95;14.65;;;0.80;99.90;;;;;;5015230;28;20124;-70
2023/01/21 08:20:04;;;;;;;36.70;17.48;;;1.20;99.90;;;;;;5014164;28;20052;-70
2023/01/21 08:22:30;;;;;;;33.30;16.40;;;0.70;99.90;;;;;;5015121;28;20052;-70
2023/01/21 08:24:56;;;;;;;30.60;14.88;;;1.20;99.90;;;;;;5015082;28;20058;-70
2023/01/21 08:27:22;;;;;;;33.45;16.42;;;1.80;99.90;;;;;;5014996;28;20048;-70
2023/01/21 08:29:48;;;;;;;31.85;15.65;;;1.70;99.90;;;;;;4997986;28;20059;-69
2023/01/21 08:32:14;;;;;;;36.15;18.52;;;0.90;99.90;;;;;;5014208;28;20092;-70
2023/01/21 08:34:40;;;;;;;47.05;25.98;;;1.60;99.90;;;;;;5014898;28;20088;-70
2023/01/21 08:37:06;;;;;;;43.20;20.75;;;2.10;99.90;;;;;;5014801;28;20077;-70
2023/01/21 08:39:31;;;;;;;38.20;18.85;;;1.60;99.90;;;;;;5014481;28;20096;-70
2023/01/21 08:41:57;;;;;;;31.63;15.57;;;1.10;99.90;;;;;;5014726;28;20056;-70
2023/01/21 08:44:23;;;;;;;30.13;15.48;;;1.10;99.90;;;;;;5014556;28;20085;-70
2023/01/21 08:46:49;;;;;;;29.10;14.48;;;1.00;99.90;;;;;;5014604;28;20458;-70
2023/01/21 08:49:14;;;;;;;38.20;16.02;;;1.40;99.90;;;;;;5014647;28;20049;-69
2023/01/21 08:51:40;;;;;;;32.85;15.23;;;1.30;99.90;;;;;;5013829;28;20095;-70
2023/01/21 08:54:07;;;;;;;30.92;16.25;;;1.00;99.90;;;;;;5013376;28;20060;-70
2023/01/21 08:56:32;;;;;;;33.67;17.73;;;1.10;99.90;;;;;;4997275;28;20156;-69
2023/01/21 08:58:59;;;;;;;27.83;15.25;;;1.30;99.90;;;;;;5014576;28;20510;-70
2023/01/21 09:01:25;;;;;;;26.00;12.98;;;1.60;99.90;;;;;;5013388;28;20050;-70
2023/01/21 09:03:55;;;;;;;28.30;13.57;;;1.20;99.90;;;;;;5015093;28;20081;-70
2023/01/21 09:06:22;;;;;;;27.70;14.00;;;1.10;99.90;;;;;;5014417;28;20038;-70
2023/01/21 09:08:48;;;;;;;26.98;13.63;;;1.20;99.90;;;;;;5014373;28;20188;-70
2023/01/21 09:11:15;;;;;;;32.20;14.95;;;1.40;99.90;;;;;;5014346;28;20054;-71
2023/01/21 09:13:43;;;;;;;29.63;14.00;;;1.60;99.90;;;;;;5014055;28;20070;-70
2023/01/21 09:16:16;;;;;;;32.17;16.95;;;2.40;99.90;;;;;;5014326;28;20085;-70
2023/01/21 09:18:42;;;;;;;31.83;13.93;;;1.50;99.90;;;;;;5014922;28;20042;-71
2023/01/21 09:21:09;;;;;;;26.98;12.98;;;1.10;99.90;;;;;;5014277;28;20105;-70
2023/01/21 09:23:36;;;;;;;26.40;13.35;;;1.20;99.90;;;;;;5013535;28;20050;-70
2023/01/21 09:26:04;;;;;;;30.00;13.88;;;1.90;99.90;;;;;;5014120;28;20045;-71
2023/01/21 09:28:32;;;;;;;26.92;13.52;;;0.90;99.90;;;;;;5014267;28;20133;-71
2023/01/21 09:30:59;;;;;;;27.15;12.82;;;1.50;99.90;;;;;;5014125;28;20053;-70
2023/01/21 09:33:26;;;;;;;26.63;13.23;;;1.10;99.90;;;;;;5014119;28;20048;-71
2023/01/21 09:35:57;;;;;;;25.27;13.25;;;1.10;99.90;;;;;;5014089;28;20045;-70
2023/01/21 09:38:23;;;;;;;28.63;13.40;;;1.00;99.90;;;;;;5014001;28;20045;-70
2023/01/21 09:40:49;;;;;;;26.23;14.23;;;1.30;99.90;;;;;;5014362;28;20050;-70
2023/01/21 09:43:37;;;;;;;29.50;14.15;;;1.60;99.90;;;;;;5013974;28;20384;-70
2023/01/21 09:46:09;;;;;;;29.45;13.48;;;1.20;99.90;;;;;;5013901;28;20081;-70
2023/01/21 09:48:40;;;;;;;28.20;14.40;;;1.90;99.90;;;;;;5013601;28;20104;-70
2023/01/21 09:51:20;;;;;;;25.60;14.52;;;1.10;99.90;;;;;;5013858;28;20073;-70
2023/01/21 09:53:53;;;;;;;26.05;13.70;;;1.20;99.90;;;;;;5012749;28;20137;-70
2023/01/21 09:56:34;;;;;;;29.27;14.93;;;2.00;99.90;;;;;;5013870;28;20392;-70
2023/01/21 09:59:03;;;;;;;31.65;14.77;;;1.70;99.90;;;;;;5014199;28;20049;-70
2023/01/21 10:01:35;;;;;;;30.75;13.85;;;1.30;99.90;;;;;;5012636;28;20050;-70
2023/01/21 10:04:24;;;;;;;28.42;14.73;;;2.30;99.90;;;;;;5012721;28;20072;-69
2023/01/21 10:07:02;;;;;;;29.27;14.75;;;1.40;99.90;;;;;;5003745;28;20368;-71
2023/01/21 10:09:59;;;;;;;26.63;13.38;;;1.30;99.90;;;;;;5013748;28;20046;-68
2023/01/21 10:12:54;;;;;;;26.45;13.20;;;1.40;99.90;;;;;;5014118;28;20046;-69
2023/01/21 10:15:20;;;;;;;29.75;15.30;;;1.50;99.90;;;;;;5014581;28;20065;-71
2023/01/21 10:18:10;;;;;;;30.90;16.58;;;1.80;99.90;;;;;;5013642;28;20050;-71
2023/01/21 10:20:55;;;;;;;28.75;15.77;;;1.60;99.90;;;;;;5014528;28;20120;-71
2023/01/21 10:23:28;;;;;;;25.00;15.68;;;1.60;99.90;;;;;;5014255;28;20042;-71
2023/01/21 10:25:56;;;;;;;32.40;14.80;;;1.70;99.90;;;;;;5013555;28;20045;-71
2023/01/21 10:28:27;;;;;;;24.58;14.00;;;1.60;99.90;;;;;;5013600;28;20042;-70
2023/01/21 10:30:57;;;;;;;28.85;15.60;;;1.70;99.90;;;;;;5012483;28;20550;-69
2023/01/21 10:33:25;;;;;;;25.65;13.50;;;2.60;99.90;;;;;;5014062;28;20096;-70
2023/01/21 10:36:29;;;;;;;24.83;13.45;;;2.00;99.90;;;;;;5012517;28;20089;-71
2023/01/21 10:39:13;;;;;;;25.42;13.43;;;1.90;99.90;;;;;;5013512;28;20049;-70
2023/01/21 10:41:45;;;;;;;27.17;12.48;;;1.80;99.90;;;;;;5013086;28;20468;-70
2023/01/21 10:44:31;;;;;;;28.48;14.65;;;1.80;99.90;;;;;;5013382;28;20046;-71
2023/01/21 10:47:05;;;;;;;26.17;12.95;;;1.90;99.90;;;;;;5012155;28;20132;-70
2023/01/21 10:49:58;;;;;;;22.60;11.95;;;3.10;99.90;;;;;;5012481;28;20133;-68
2023/01/21 10:52:51;;;;;;;21.65;11.05;;;2.00;99.90;;;;;;5013373;28;20104;-69
2023/01/21 10:55:44;;;;;;;24.75;12.13;;;2.00;99.90;;;;;;5013252;28;20459;-69
2023/01/21 10:58:24;;;;;;;18.40;10.90;;;2.10;99.90;;;;;;5012096;28;20188;-69
2023/01/21 11:00:51;;;;;;;20.67;10.48;;;2.10;99.90;;;;;;5013890;28;20139;-69
2023/01/21 11:03:40;;;;;;;19.45;10.70;;;2.70;99.90;;;;;;5014451;28;20053;-69
2023/01/21 11:06:09;;;;;;;20.42;11.05;;;2.10;99.90;;;;;;5017362;28;20042;-71
2023/01/21 11:08:37;;;;;;;18.92;9.18;;;3.40;99.90;;;;;;5015614;28;20483;-69
2023/01/21 11:11:05;;;;;;;17.27;9.30;;;3.00;99.90;;;;;;5016531;28;20378;-69
2023/01/21 11:13:31;;;;;;;18.67;8.57;;;2.30;99.90;;;;;;5016069;28;20054;-68
2023/01/21 11:15:58;;;;;;;17.67;9.32;;;2.50;99.90;;;;;;5016239;28;20510;-69
2023/01/21 11:18:39;;;;;;;17.98;9.18;;;2.80;99.90;;;;;;5016397;28;20050;-69
2023/01/21 11:21:22;;;;;;;20.73;9.98;;;2.50;99.90;;;;;;5015403;28;20122;-69
2023/01/21 11:23:59;;;;;;;17.40;9.68;;;2.50;99.90;;;;;;5016923;28;20046;-69
2023/01/21 11:26:29;;;;;;;15.90;8.80;;;2.90;99.90;;;;;;5016736;28;20041;-69
2023/01/21 11:29:15;;;;;;;18.30;10.30;;;2.50;99.90;;;;;;5016375;28;20048;-68
2023/01/21 11:32:00;;;;;;;16.10;8.32;;;3.10;99.90;;;;;;5016231;28;20052;-68
2023/01/21 11:34:26;;;;;;;16.75;9.85;;;2.70;99.90;;;;;;5016195;28;20057;-68
2023/01/21 11:37:02;;;;;;;16.25;9.73;;;2.90;99.90;;;;;;5016651;28;20046;-68
2023/01/21 11:39:38;;;;;;;17.15;9.32;;;2.70;99.90;;;;;;5016144;28;20058;-68
2023/01/21 11:42:12;;;;;;;16.70;9.77;;;2.90;99.90;;;;;;5016083;28;20045;-68
2023/01/21 11:44:58;;;;;;;19.23;10.40;;;3.00;99.90;;;;;;5016039;28;20053;-69
2023/01/21 11:47:47;;;;;;;19.02;10.27;;;2.80;99.90;;;;;;5016759;28;20192;-68
2023/01/21 11:50:16;;;;;;;17.58;10.10;;;2.90;99.90;;;;;;5016571;28;20056;-69
2023/01/21 11:52:42;;;;;;;16.35;9.23;;;3.50;99.90;;;;;;5015849;28;20050;-68
2023/01/21 11:55:18;;;;;;;14.05;8.57;;;3.20;99.90;;;;;;5015435;28;20052;-69
2023/01/21 11:57:50;;;;;;;16.10;8.82;;;3.00;99.90;;;;;;5015793;28;20126;-69
2023/01/21 12:00:18;;;;;;;16.08;9.25;;;3.30;99.90;;;;;;4998783;28;20061;-68
2023/01/21 12:02:49;;;;;;;15.45;8.30;;;2.80;99.90;;;;;;5016923;28;20058;-68
2023/01/21 12:05:27;;;;;;;16.23;8.68;;;3.40;99.90;;;;;;5020739;28;20058;-69
2023/01/21 12:07:54;;;;;;;14.55;8.68;;;2.90;99.90;;;;;;5016086;28;20049;-69
2023/01/21 12:10:37;;;;;;;13.60;7.13;;;3.20;99.90;;;;;;5014624;28;20387;-70
2023/01/21 12:13:14;;;;;;;10.07;6.40;;;3.80;99.90;;;;;;5015574;28;20503;-69
2023/01/21 12:15:55;;;;;;;12.65;6.38;;;3.10;99.90;;;;;;5014794;28;20094;-69
2023/01/21 12:18:41;;;;;;;12.02;6.57;;;3.10;99.90;;;;;;5015392;28;20515;-69
2023/01/21 12:21:35;;;;;;;9.32;6.07;;;3.10;99.90;;;;;;5015640;28;20042;-70
2023/01/21 12:24:22;;;;;;;11.82;6.65;;;3.20;99.90;;;;;;5015561;28;20116;-69
2023/01/21 12:27:06;;;;;;;11.30;5.90;;;3.60;99.90;;;;;;5015938;28;20042;-69
2023/01/21 12:29:50;;;;;;;8.90;4.97;;;3.10;99.90;;;;;;5014617;28;20058;-69
2023/01/21 12:32:25;;;;;;;6.63;4.38;;;3.10;99.90;;;;;;5015345;28;20057;-69
2023/01/21 12:34:57;;;;;;;9.02;5.45;;;3.70;99.90;;;;;;5014436;28;20053;-69
2023/01/21 12:37:38;;;;;;;7.65;5.35;;;3.40;99.90;;;;;;5015035;28;20050;-69
2023/01/21 12:40:23;;;;;;;8.20;4.55;;;3.20;99.90;;;;;;5013978;28;20045;-69
2023/01/21 12:42:54;;;;;;;7.53;4.10;;;3.20;99.90;;;;;;5015738;28;20045;-70
2023/01/21 12:45:27;;;;;;;6.38;4.15;;;4.00;99.90;;;;;;5015608;28;20042;-70
2023/01/21 12:48:04;;;;;;;7.15;4.22;;;3.10;99.90;;;;;;5014824;28;20058;-69
2023/01/21 12:50:40;;;;;;;5.47;3.75;;;3.40;99.90;;;;;;5014792;28;20505;-69
2023/01/21 12:53:08;;;;;;;6.47;3.70;;;3.60;99.90;;;;;;5014588;28;20053;-69
2023/01/21 12:55:59;;;;;;;4.28;3.03;;;3.60;99.90;;;;;;5013252;28;20041;-71
2023/01/21 12:58:31;;;;;;;5.53;3.15;;;3.50;99.90;;;;;;5014445;28;20046;-71
2023/01/21 13:01:01;;;;;;;6.80;3.83;;;3.50;99.90;;;;;;5015058;28;20133;-70